createdAt,value
2023-03-04T00:01:40.334Z,13.80
2023-03-04T00:06:45.149Z,13.80
2023-03-04T00:11:48.522Z,13.70
2023-03-04T00:16:52.015Z,13.70
2023-03-04T00:21:57.152Z,13.60
2023-03-04T00:27:00.821Z,13.70
2023-03-04T00:32:04.470Z,13.60
2023-03-04T00:37:09.418Z,13.60
2023-03-04T00:42:12.847Z,13.60
2023-03-04T00:47:18.622Z,13.50
2023-03-04T00:52:23.318Z,13.50
2023-03-04T00:57:26.654Z,13.50
2023-03-04T01:02:30.901Z,13.50
2023-03-04T01:07:35.656Z,13.40
2023-03-04T01:12:40.256Z,13.40
2023-03-04T01:17:43.819Z,13.30
2023-03-04T01:22:48.799Z,13.30
2023-03-04T01:27:52.536Z,13.20
2023-03-04T01:32:56.507Z,13.20
2023-03-04T01:38:01.384Z,13.10
2023-03-04T01:43:04.825Z,13.10
2023-03-04T01:48:10.080Z,13.00
2023-03-04T01:53:21.116Z,12.90
2023-03-04T01:58:26.125Z,12.90
2023-03-04T02:03:29.711Z,12.80
2023-03-04T02:08:35.578Z,12.70
2023-03-04T02:13:39.073Z,12.70
2023-03-04T02:18:42.512Z,12.60
2023-03-04T02:23:53.867Z,12.60
2023-03-04T02:29:01.589Z,12.50
2023-03-04T02:34:07.789Z,12.50
2023-03-04T02:39:16.777Z,12.40
2023-03-04T02:44:24.815Z,12.40
2023-03-04T02:49:31.137Z,12.40
2023-03-04T02:54:35.292Z,12.30
2023-03-04T02:59:41.499Z,12.30
2023-03-04T03:04:47.329Z,12.30
2023-03-04T03:09:54.288Z,12.30
2023-03-04T03:14:59.100Z,12.40
2023-03-04T03:20:02.938Z,12.40
2023-03-04T03:25:07.521Z,12.40
2023-03-04T03:30:18.077Z,12.40
2023-03-04T03:35:21.642Z,12.40
2023-03-04T03:40:25.030Z,12.50
2023-03-04T03:45:29.836Z,12.40
2023-03-04T03:50:33.511Z,12.40
2023-03-04T03:55:37.033Z,12.40
2023-03-04T04:00:41.808Z,12.40
2023-03-04T04:05:45.342Z,12.40
2023-03-04T04:10:48.844Z,12.40
2023-03-04T04:15:55.029Z,12.40
2023-03-04T04:20:58.666Z,12.40
2023-03-04T04:26:02.570Z,12.40
2023-03-04T04:31:10.597Z,12.50
2023-03-04T04:36:16.369Z,12.60
2023-03-04T04:41:23.121Z,12.60
2023-03-04T04:46:28.337Z,12.70
2023-03-04T04:51:31.898Z,12.70
2023-03-04T04:56:35.895Z,12.80
2023-03-04T05:01:41.452Z,12.90
2023-03-04T05:06:44.988Z,12.90
2023-03-04T05:11:48.860Z,13.00
2023-03-04T05:16:54.189Z,13.10
2023-03-04T05:21:57.720Z,13.10
2023-03-04T05:27:01.636Z,13.20
2023-03-04T05:32:07.018Z,13.20
2023-03-04T05:37:10.504Z,13.30
2023-03-04T05:42:17.022Z,13.30
2023-03-04T05:47:22.155Z,13.30
2023-03-04T05:52:25.623Z,13.30
2023-03-04T05:57:31.432Z,13.30
2023-03-04T06:02:37.501Z,13.30
2023-03-04T06:07:43.240Z,13.40
2023-03-04T06:12:46.781Z,13.40
2023-03-04T06:17:51.777Z,13.40
2023-03-04T06:22:55.211Z,13.40
2023-03-04T06:27:58.886Z,13.40
2023-03-04T06:33:03.837Z,13.50
2023-03-04T06:38:07.268Z,13.50
2023-03-04T06:43:10.881Z,13.50
2023-03-04T06:48:15.655Z,13.50
2023-03-04T06:53:19.029Z,13.50
2023-03-04T06:58:22.447Z,13.50
2023-03-04T07:03:27.506Z,13.50
2023-03-04T07:08:30.929Z,13.40
2023-03-04T07:13:38.356Z,13.50
2023-03-04T07:18:43.612Z,13.50
2023-03-04T07:23:48.494Z,13.60
2023-03-04T07:28:52.901Z,13.60
2023-03-04T07:34:00.300Z,13.70
2023-03-04T07:39:04.307Z,13.70
2023-03-04T07:44:10.696Z,13.80
2023-03-04T07:49:16.693Z,13.80
2023-03-04T07:54:20.323Z,13.80
2023-03-04T07:59:23.800Z,13.80
2023-03-04T08:04:28.592Z,13.90
2023-03-04T08:09:32.446Z,13.90
2023-03-04T08:14:36.110Z,14.00
2023-03-04T08:19:40.976Z,14.00
2023-03-04T08:24:44.361Z,14.10
2023-03-04T08:29:47.713Z,14.20
2023-03-04T08:34:52.404Z,14.20
2023-03-04T08:39:55.812Z,14.30
2023-03-04T08:44:59.170Z,14.30
2023-03-04T08:50:04.117Z,14.40
2023-03-04T08:55:08.018Z,14.50
2023-03-04T09:00:12.890Z,14.60
2023-03-04T09:05:17.670Z,14.70
2023-03-04T09:10:21.275Z,14.80
2023-03-04T09:15:24.536Z,14.90
2023-03-04T09:20:29.336Z,15.00
2023-03-04T09:25:32.963Z,15.20
2023-03-04T09:30:38.706Z,15.30
2023-03-04T09:35:43.972Z,15.40
2023-03-04T09:40:49.324Z,15.60
2023-03-04T09:45:57.540Z,15.70
2023-03-04T09:51:17.734Z,15.90
2023-03-04T09:56:25.817Z,16.20
2023-03-04T10:01:35.828Z,16.50
2023-03-04T10:06:42.582Z,16.70
2023-03-04T10:11:49.071Z,17.10
2023-03-04T10:16:57.171Z,17.40
2023-03-04T10:22:13.741Z,17.60
2023-03-04T10:27:20.158Z,17.90
2023-03-04T10:32:23.728Z,18.10
2023-03-04T10:37:46.300Z,18.30
2023-03-04T10:42:50.677Z,18.60
2023-03-04T10:47:55.161Z,18.70
2023-03-04T10:53:00.386Z,18.90
2023-03-04T10:58:06.031Z,19.10
2023-03-04T11:03:29.033Z,19.30
2023-03-04T11:08:34.274Z,19.50
2023-03-04T11:13:37.632Z,19.70
2023-03-04T11:18:43.965Z,19.90
2023-03-04T11:23:52.329Z,20.10
2023-03-04T11:29:00.201Z,20.30
2023-03-04T11:34:09.074Z,20.60
2023-03-04T11:39:23.225Z,20.80
2023-03-04T11:44:26.688Z,21.00
2023-03-04T11:49:48.919Z,21.20
2023-03-04T11:55:15.288Z,21.40
2023-03-04T12:00:40.490Z,21.60
2023-03-04T12:05:54.114Z,21.70
2023-03-04T12:11:05.564Z,21.80
2023-03-04T12:16:29.656Z,22.00
2023-03-04T12:21:52.383Z,22.30
2023-03-04T12:27:03.182Z,22.60
2023-03-04T12:32:16.013Z,23.00
2023-03-04T12:37:33.973Z,23.40
2023-03-04T12:42:52.381Z,23.70
2023-03-04T12:48:07.958Z,24.00
2023-03-04T12:53:22.394Z,24.20
2023-03-04T12:58:29.552Z,24.40
2023-03-04T13:03:43.245Z,24.30
2023-03-04T13:08:58.258Z,24.10
2023-03-04T13:14:08.126Z,23.70
2023-03-04T13:19:45.792Z,23.30
2023-03-04T13:24:51.113Z,22.80
2023-03-04T13:29:56.040Z,22.30
2023-03-04T13:34:59.431Z,21.90
2023-03-04T13:40:32.035Z,21.50
2023-03-04T13:45:39.215Z,21.00
2023-03-04T13:50:49.483Z,20.60
2023-03-04T13:56:31.457Z,20.30
2023-03-04T14:01:38.298Z,20.00
2023-03-04T14:06:45.210Z,19.70
2023-03-04T14:11:49.499Z,19.40
2023-03-04T14:16:58.810Z,19.30
2023-03-04T14:22:02.842Z,19.10
2023-03-04T14:27:13.004Z,18.90
2023-03-04T14:32:17.996Z,18.80
2023-03-04T14:37:23.908Z,18.80
2023-03-04T14:42:33.354Z,18.70
2023-03-04T14:47:41.574Z,18.60
2023-03-04T14:52:47.194Z,18.50
2023-03-04T14:57:58.684Z,18.40
2023-03-04T15:03:05.982Z,18.40
2023-03-04T15:08:24.111Z,18.30
2023-03-04T15:13:49.612Z,18.30
2023-03-04T15:19:02.651Z,18.20
2023-03-04T15:24:12.322Z,18.10
2023-03-04T15:29:20.751Z,18.10
2023-03-04T15:34:26.300Z,18.00
2023-03-04T15:39:32.241Z,17.90
2023-03-04T15:44:36.439Z,17.80
2023-03-04T15:49:42.250Z,17.70
2023-03-04T15:54:46.920Z,17.60
2023-03-04T15:59:52.584Z,17.50
2023-03-04T16:04:58.514Z,17.30
2023-03-04T16:10:07.156Z,17.20
2023-03-04T16:15:16.167Z,17.10
2023-03-04T16:20:24.682Z,16.90
2023-03-04T16:25:29.195Z,16.80
2023-03-04T16:30:33.859Z,16.70
2023-03-04T16:35:39.967Z,16.60
2023-03-04T16:40:44.402Z,16.40
2023-03-04T16:45:48.599Z,16.30
2023-03-04T16:50:54.303Z,16.20
2023-03-04T16:56:01.752Z,16.00
2023-03-04T17:01:07.088Z,15.90
2023-03-04T17:06:13.641Z,15.70
2023-03-04T17:11:20.203Z,15.60
2023-03-04T17:16:25.202Z,15.50
2023-03-04T17:21:30.241Z,15.40
2023-03-04T17:26:35.104Z,15.30
2023-03-04T17:31:39.905Z,15.20
2023-03-04T17:36:45.903Z,15.10
2023-03-04T17:41:52.781Z,15.00
2023-03-04T17:46:58.137Z,14.90
2023-03-04T17:52:06.192Z,14.90
2023-03-04T17:57:12.038Z,14.70
2023-03-04T18:02:20.151Z,14.70
2023-03-04T18:07:26.849Z,14.60
2023-03-04T18:12:34.162Z,14.60
2023-03-04T18:17:40.192Z,14.50
2023-03-04T18:22:46.897Z,14.60
2023-03-04T18:27:51.575Z,14.50
2023-03-04T18:32:58.569Z,14.50
2023-03-04T18:38:05.206Z,14.40
2023-03-04T18:43:11.134Z,14.40
2023-03-04T18:48:22.547Z,14.30
2023-03-04T18:53:33.438Z,14.30
2023-03-04T18:58:41.317Z,14.30
2023-03-04T19:03:47.655Z,14.30
2023-03-04T19:08:55.787Z,14.20
2023-03-04T19:14:01.446Z,14.10
2023-03-04T19:19:08.378Z,14.10
2023-03-04T19:24:15.432Z,14.00
2023-03-04T19:29:20.772Z,14.00
2023-03-04T19:34:25.972Z,13.90
2023-03-04T19:39:33.260Z,13.80
2023-03-04T19:44:39.156Z,13.80
2023-03-04T19:49:44.823Z,13.70
2023-03-04T19:54:51.126Z,13.70
2023-03-04T19:59:56.442Z,13.60
2023-03-04T20:05:02.332Z,13.60
2023-03-04T20:10:09.737Z,13.50
2023-03-04T20:15:15.604Z,13.50
2023-03-04T20:20:20.975Z,13.40
2023-03-04T20:25:29.145Z,13.30
2023-03-04T20:30:33.518Z,13.30
2023-03-04T20:35:40.362Z,13.20
2023-03-04T20:40:46.744Z,13.20
2023-03-04T20:45:51.645Z,13.20
2023-03-04T20:50:56.694Z,13.20
2023-03-04T20:56:07.426Z,13.10
2023-03-04T21:01:11.788Z,13.10
2023-03-04T21:06:15.690Z,13.10
2023-03-04T21:11:23.482Z,13.00
2023-03-04T21:16:30.396Z,12.90
2023-03-04T21:21:35.316Z,12.80
2023-03-04T21:26:45.665Z,12.70
2023-03-04T21:31:52.249Z,12.70
2023-03-04T21:36:55.932Z,12.70
2023-03-04T21:42:02.541Z,12.60
2023-03-04T21:47:06.852Z,12.60
2023-03-04T21:52:12.074Z,12.50
2023-03-04T21:57:18.015Z,12.40
2023-03-04T22:02:24.293Z,12.40
2023-03-04T22:07:27.921Z,12.30
2023-03-04T22:12:33.456Z,12.30
2023-03-04T22:17:37.135Z,12.30
2023-03-04T22:22:40.908Z,12.30
2023-03-04T22:27:45.803Z,12.20
2023-03-04T22:32:50.144Z,12.20
2023-03-04T22:37:53.710Z,12.20
2023-03-04T22:42:58.574Z,12.20
2023-03-04T22:48:04.176Z,12.10
2023-03-04T22:53:10.548Z,12.10
2023-03-04T22:58:15.891Z,12.00
2023-03-04T23:03:20.901Z,11.90
2023-03-04T23:08:24.933Z,11.90
2023-03-04T23:13:29.948Z,11.80
2023-03-04T23:18:34.795Z,11.80
2023-03-04T23:23:38.667Z,11.80
2023-03-04T23:28:43.534Z,11.80
2023-03-04T23:33:48.649Z,11.80
2023-03-04T23:38:52.159Z,11.90
2023-03-04T23:44:00.037Z,11.90
2023-03-04T23:49:03.380Z,11.90
2023-03-04T23:54:07.500Z,11.90
2023-03-04T23:59:13.039Z,11.80
